Point Arena, CA (95468)

4:56 AM PST on November 28, 2014 (GMT -0800)
MAP POINT ARENA (P059), CA PSD | Change Station
CLOSE
Current Station
Personal Weather Station
Location: Point Arena, CA
Elevation: 68 ft
Nearby Weather Stations

Elev 68 ft 38.93 °N, 123.73 °W | Updated 638 days ago

Partly Cloudy
Partly Cloudy
54 °F
Feels Like 54 °F
N
11
Wind Variable Wind from SSE
Gusts 12 mph

Today
High -- | Low -- °F
--% Chance of Precip.
Yesterday
High -- | Low -- °F
Precip. -- in
7:11 AM 4:53 PM
Waxing Crescent, 40% visible
Pressure 30.03 in
Visibility 9.0 miles
Clouds Clear
Dew Point 47 °F
Humidity 80%
Rainfall -999.00 in
Snow Depth Not available.
UV 0 out of 12
Pollen .50 out of 12
Air Quality Not available.
Flu Activity Not available.
METAR KUKI 281156Z AUTO 00000KT 9SM CLR 03/02 A3004 RMK AO2 SLP168 T00280017 10061 20017 56006

More Conditions Fewer Conditions

Pressure 30.03 in
Visibility 9.0 miles
Clouds Clear
Dew Point 47 °F
Humidity 80%
Rainfall -999.00 in
Snow Depth Not available.
UV 0 out of 12
Pollen .50 out of 12
Air Quality Not available.
Flu Activity Not available.
METAR KUKI 281156Z AUTO 00000KT 9SM CLR 03/02 A3004 RMK AO2 SLP168 T00280017 10061 20017 56006

More Conditions Fewer Conditions

10-Day Weather Forecast

Almanac

Astronomy

Nov. 28, 2014 Rise Set
Actual Time
Civil Twilight
Nautical Twilight
Astronomical Twilight
Moon
Length of Visible Light
Length of Day
Tomorrow will be .
, % of the Moon is Illuminated

Today's Extremes

State Highs State Lows

Community

WunderPhotos

Upload Photos

1,774,199 photos uploaded!

WunderBlogs® & News

Nearby

Air Quality

  Air Quality AQ Index Pollutant
Not available.

Snow Depth

Station Depth Elevation

Earthquake Activity

City Distance Mag. Time & Date
Minimum magnitude displayed is 2.5.

Coastal Water Temperatures

Place Temperature

Nearby Weather Stations